Strona główna
METAR-TAF:

METAR-TAF

Lotnisko :

Newport, Vermont, Stany Zjednoczone

Szerokość geograficzna: 44-53-20N, Długość geograficzna: 072-13-45W, wysokość: 283 m

Aktualna obserwacja pogody

Raport powstał 23 minut temu, godzina 02:35 UTC
Wiatr 5 kt od północny zachód
Temperatura 6°C
Wilgotność 93%
Ciśnienie 1015 hPa
Widzialność: 16.1 km
Rozproszone chmury na wysokości 2000 ft
Przerywane chmury na wysokości 3900 ft
Zachmurzenie całkowite na wysokości 7000 ft

METAR: KEFK 060235Z AUTO 31005KT 10SM SCT020 BKN039 OVC070 06/05 A2998 RMK AO2 T00600045

czas: 22:58 (02:58 UTC)


TAF: brakujący

Obserwacja i prognoza pogody dla ponad 4000 lotnisk (raport METAR i TAF).

Dostępne stacje oznaczono żółtymi i czerwonymi punktami na mapie.

Najedź kursorem aby zobaczyć nazwę stacji.

Kliknij aby zobaczyć obserwacje i prognozy pogody.

Aby zmienić mapę: kliknij na zielony przycisk z czarnym krzyżykiem, aby powiększyć; na zielony przycisk z myślnikiem, aby pomniejszyć; na zielone strzałki, aby przejść do map sąsiednich.


METAR-TAF: